createdAt,value
2023-02-27T00:02:17.744Z,5.83
2023-02-27T00:04:45.582Z,5.80
2023-02-27T00:07:13.321Z,5.82
2023-02-27T00:09:42.420Z,5.81
2023-02-27T00:12:12.011Z,5.78
2023-02-27T00:14:39.757Z,5.79
2023-02-27T00:17:07.884Z,5.77
2023-02-27T00:19:35.609Z,5.76
2023-02-27T00:22:03.277Z,5.76
2023-02-27T00:24:31.301Z,5.75
2023-02-27T00:27:00.397Z,5.73
2023-02-27T00:29:28.870Z,5.75
2023-02-27T00:31:56.752Z,5.74
2023-02-27T00:34:24.639Z,5.73
2023-02-27T00:36:52.373Z,5.72
2023-02-27T00:39:20.081Z,5.70
2023-02-27T00:41:47.783Z,5.71
2023-02-27T00:44:16.837Z,5.68
2023-02-27T00:46:44.559Z,5.69
2023-02-27T00:49:12.265Z,5.68
2023-02-27T00:51:40.064Z,5.67
2023-02-27T00:54:09.115Z,5.67
2023-02-27T00:56:36.815Z,5.67
2023-02-27T00:59:04.935Z,5.65
2023-02-27T01:01:33.994Z,5.64
2023-02-27T01:04:02.403Z,5.62
2023-02-27T01:06:30.096Z,5.62
2023-02-27T01:08:57.792Z,5.61
2023-02-27T01:11:25.843Z,5.59
2023-02-27T01:13:53.725Z,5.58
2023-02-27T01:16:21.505Z,5.57
2023-02-27T01:18:51.242Z,5.55
2023-02-27T01:21:18.988Z,5.56
2023-02-27T01:23:46.713Z,5.56
2023-02-27T01:26:14.486Z,5.54
2023-02-27T01:28:42.458Z,5.54
2023-02-27T01:31:10.354Z,5.53
2023-02-27T01:33:38.107Z,5.51
2023-02-27T01:36:08.160Z,5.46
2023-02-27T01:38:35.906Z,5.43
2023-02-27T01:41:05.087Z,5.44
2023-02-27T01:43:32.850Z,5.42
2023-02-27T01:46:00.991Z,5.38
2023-02-27T01:48:31.806Z,5.38
2023-02-27T01:51:02.732Z,5.38
2023-02-27T01:53:35.354Z,5.41
2023-02-27T01:56:10.426Z,5.38
2023-02-27T01:58:38.669Z,5.38
2023-02-27T02:01:06.648Z,5.35
2023-02-27T02:03:39.009Z,5.35
2023-02-27T02:06:08.007Z,5.36
2023-02-27T02:08:42.959Z,5.37
2023-02-27T02:11:12.375Z,5.36
2023-02-27T02:13:42.060Z,5.35
2023-02-27T02:16:26.431Z,5.34
2023-02-27T02:19:06.233Z,5.33
2023-02-27T02:22:03.891Z,5.34
2023-02-27T02:24:54.262Z,5.33
2023-02-27T02:27:45.218Z,5.33
2023-02-27T02:30:57.829Z,5.33
2023-02-27T02:34:08.874Z,5.32
2023-02-27T02:37:10.441Z,5.32
2023-02-27T02:40:00.348Z,5.30
2023-02-27T02:42:37.332Z,5.30
2023-02-27T02:45:11.081Z,5.29
2023-02-27T02:47:54.195Z,5.29
2023-02-27T02:50:28.632Z,5.29
2023-02-27T02:53:05.503Z,5.27
2023-02-27T02:55:40.452Z,5.24
2023-02-27T02:58:13.846Z,5.25
2023-02-27T03:00:47.703Z,5.24
2023-02-27T03:03:23.472Z,5.24
2023-02-27T03:05:56.784Z,5.24
2023-02-27T03:08:29.581Z,5.24
2023-02-27T03:11:00.672Z,5.23
2023-02-27T03:13:34.540Z,5.20
2023-02-27T03:16:08.165Z,5.21
2023-02-27T03:18:39.655Z,5.20
2023-02-27T03:21:11.353Z,5.19
2023-02-27T03:23:44.686Z,5.20
2023-02-27T03:26:20.025Z,5.20
2023-02-27T03:28:54.950Z,5.21
2023-02-27T03:31:31.385Z,5.21
2023-02-27T03:34:07.601Z,5.21
2023-02-27T03:36:40.841Z,5.20
2023-02-27T03:39:17.843Z,5.18
2023-02-27T03:41:50.956Z,5.17
2023-02-27T03:44:27.187Z,5.16
2023-02-27T03:46:55.090Z,5.13
2023-02-27T03:49:22.788Z,5.12
2023-02-27T03:51:50.625Z,5.13
2023-02-27T03:54:22.587Z,5.13
2023-02-27T03:56:56.739Z,5.12
2023-02-27T03:59:25.608Z,5.12
2023-02-27T04:01:54.268Z,5.12
2023-02-27T04:04:23.115Z,5.10
2023-02-27T04:07:18.866Z,5.10
2023-02-27T04:10:18.817Z,5.08
2023-02-27T04:13:25.060Z,5.06
2023-02-27T04:16:26.762Z,5.04
2023-02-27T04:19:09.484Z,5.01
2023-02-27T04:21:44.708Z,5.01
2023-02-27T04:24:21.505Z,5.00
2023-02-27T04:26:54.026Z,4.99
2023-02-27T04:29:30.364Z,4.97
2023-02-27T04:32:03.518Z,4.96
2023-02-27T04:34:37.341Z,4.95
2023-02-27T04:37:09.995Z,4.95
2023-02-27T04:39:42.034Z,4.94
2023-02-27T04:42:17.100Z,4.93
2023-02-27T04:44:47.581Z,4.94
2023-02-27T04:47:18.869Z,4.93
2023-02-27T04:49:51.454Z,4.94
2023-02-27T04:52:24.268Z,4.92
2023-02-27T04:54:57.466Z,4.92
2023-02-27T04:57:29.006Z,4.88
2023-02-27T04:59:57.712Z,4.89
2023-02-27T05:02:32.714Z,4.89
2023-02-27T05:05:04.368Z,4.88
2023-02-27T05:07:36.575Z,4.89
2023-02-27T05:10:08.310Z,4.89
2023-02-27T05:12:42.303Z,4.88
2023-02-27T05:15:15.325Z,4.88
2023-02-27T05:17:48.516Z,4.88
2023-02-27T05:20:18.480Z,4.87
2023-02-27T05:22:49.734Z,4.88
2023-02-27T05:25:25.983Z,4.87
2023-02-27T05:27:58.458Z,4.84
2023-02-27T05:30:31.935Z,4.86
2023-02-27T05:33:06.712Z,4.86
2023-02-27T05:35:39.203Z,4.84
2023-02-27T05:38:11.172Z,4.83
2023-02-27T05:40:42.648Z,4.83
2023-02-27T05:43:13.290Z,4.85
2023-02-27T05:45:43.321Z,4.83
2023-02-27T05:48:17.832Z,4.82
2023-02-27T05:50:50.033Z,4.82
2023-02-27T05:53:21.665Z,4.81
2023-02-27T05:55:52.358Z,4.81
2023-02-27T05:58:24.742Z,4.80
2023-02-27T06:00:55.929Z,4.81
2023-02-27T06:03:26.052Z,4.84
2023-02-27T06:05:55.461Z,4.94
2023-02-27T06:08:23.877Z,5.04
2023-02-27T06:10:51.810Z,5.16
2023-02-27T06:13:20.009Z,5.29
2023-02-27T06:15:47.718Z,5.44
2023-02-27T06:18:16.940Z,5.63
2023-02-27T06:20:47.024Z,5.77
2023-02-27T06:23:14.972Z,5.89
2023-02-27T06:25:43.187Z,6.01
2023-02-27T06:28:11.225Z,5.98
2023-02-27T06:30:39.458Z,5.87
2023-02-27T06:33:07.228Z,5.71
2023-02-27T06:35:35.266Z,5.56
2023-02-27T06:38:05.011Z,5.45
2023-02-27T06:40:32.770Z,5.35
2023-02-27T06:43:00.819Z,5.27
2023-02-27T06:45:28.531Z,5.20
2023-02-27T06:47:56.224Z,5.17
2023-02-27T06:50:23.967Z,5.13
2023-02-27T06:52:52.030Z,5.08
2023-02-27T06:55:22.736Z,5.04
2023-02-27T06:57:50.614Z,4.91
2023-02-27T07:00:19.157Z,4.96
2023-02-27T07:02:46.951Z,4.91
2023-02-27T07:05:14.796Z,4.88
2023-02-27T07:07:42.807Z,4.84
2023-02-27T07:10:12.877Z,4.82
2023-02-27T07:12:42.342Z,4.79
2023-02-27T07:15:12.496Z,4.78
2023-02-27T07:17:40.252Z,4.74
2023-02-27T07:20:10.566Z,4.75
2023-02-27T07:22:38.913Z,4.75
2023-02-27T07:25:07.909Z,4.73
2023-02-27T07:27:35.620Z,4.72
2023-02-27T07:30:05.499Z,4.71
2023-02-27T07:32:33.492Z,4.71
2023-02-27T07:35:01.273Z,4.71
2023-02-27T07:37:29.001Z,4.69
2023-02-27T07:39:56.682Z,4.68
2023-02-27T07:42:24.533Z,4.67
2023-02-27T07:44:52.283Z,4.66
2023-02-27T07:47:21.351Z,4.67
2023-02-27T07:49:49.092Z,4.69
2023-02-27T07:52:16.845Z,4.67
2023-02-27T07:54:44.523Z,4.67
2023-02-27T07:57:12.548Z,4.68
2023-02-27T07:59:40.292Z,4.69
2023-02-27T08:02:08.089Z,4.70
2023-02-27T08:04:37.176Z,4.70
2023-02-27T08:07:05.083Z,4.69
2023-02-27T08:09:32.844Z,4.69
2023-02-27T08:12:03.024Z,4.68
2023-02-27T08:14:30.807Z,4.68
2023-02-27T08:17:00.222Z,4.69
2023-02-27T08:19:28.024Z,4.68
2023-02-27T08:21:57.080Z,4.64
2023-02-27T08:24:25.140Z,4.66
2023-02-27T08:26:52.938Z,4.65
2023-02-27T08:29:20.670Z,4.65
2023-02-27T08:31:48.508Z,4.63
2023-02-27T08:34:16.553Z,4.63
2023-02-27T08:36:44.487Z,4.63
2023-02-27T08:39:14.141Z,4.63
2023-02-27T08:41:41.882Z,4.65
2023-02-27T08:44:09.608Z,4.65
2023-02-27T08:46:37.461Z,4.64
2023-02-27T08:49:05.670Z,4.67
2023-02-27T08:51:33.605Z,4.66
2023-02-27T08:54:01.477Z,4.66
2023-02-27T08:56:31.506Z,4.65
2023-02-27T08:58:59.298Z,4.69
2023-02-27T09:01:31.722Z,4.79
2023-02-27T09:03:59.564Z,4.96
2023-02-27T09:06:28.346Z,5.15
2023-02-27T09:08:56.293Z,5.33
2023-02-27T09:11:24.388Z,5.52
2023-02-27T09:13:53.854Z,5.67
2023-02-27T09:16:22.734Z,5.86
2023-02-27T09:18:51.227Z,5.99
2023-02-27T09:21:19.230Z,6.13
2023-02-27T09:23:47.285Z,6.24
2023-02-27T09:26:16.116Z,6.29
2023-02-27T09:28:44.013Z,6.26
2023-02-27T09:31:13.358Z,6.14
2023-02-27T09:33:41.118Z,6.02
2023-02-27T09:36:09.253Z,5.92
2023-02-27T09:38:40.917Z,5.78
2023-02-27T09:41:23.320Z,5.66
2023-02-27T09:43:52.735Z,5.60
2023-02-27T09:46:25.645Z,5.51
2023-02-27T09:48:55.732Z,5.63
2023-02-27T09:51:24.499Z,5.82
2023-02-27T09:53:55.587Z,5.98
2023-02-27T09:56:27.217Z,6.14
2023-02-27T09:59:02.604Z,6.30
2023-02-27T10:01:37.688Z,6.31
2023-02-27T10:04:31.582Z,6.51
2023-02-27T10:07:08.525Z,6.62
2023-02-27T10:09:38.868Z,6.53
2023-02-27T10:12:16.587Z,6.36
2023-02-27T10:14:48.838Z,6.15
2023-02-27T10:17:24.572Z,6.02
2023-02-27T10:19:54.450Z,5.94
2023-02-27T10:22:27.454Z,5.87
2023-02-27T10:25:01.423Z,5.80
2023-02-27T10:27:31.614Z,5.68
2023-02-27T10:30:23.544Z,5.65
2023-02-27T10:33:07.538Z,5.62
2023-02-27T10:35:38.607Z,5.61
2023-02-27T10:38:13.600Z,5.60
2023-02-27T10:40:43.835Z,5.47
2023-02-27T10:43:17.061Z,5.41
2023-02-27T10:45:44.738Z,5.35
2023-02-27T10:48:14.520Z,5.39
2023-02-27T10:50:44.412Z,5.44
2023-02-27T10:53:20.349Z,5.46
2023-02-27T10:56:01.511Z,5.44
2023-02-27T10:58:34.767Z,5.40
2023-02-27T11:01:06.229Z,5.30
2023-02-27T11:03:40.617Z,5.20
2023-02-27T11:06:22.344Z,5.23
2023-02-27T11:09:14.873Z,5.25
2023-02-27T11:11:42.787Z,5.29
2023-02-27T11:14:26.414Z,5.34
2023-02-27T11:16:56.206Z,5.42
2023-02-27T11:19:36.953Z,5.46
2023-02-27T11:22:08.275Z,5.46
2023-02-27T11:24:36.911Z,5.47
2023-02-27T11:27:17.848Z,5.47
2023-02-27T11:29:58.088Z,5.64
2023-02-27T11:32:27.845Z,5.86
2023-02-27T11:34:57.495Z,5.99
2023-02-27T11:37:30.301Z,6.25
2023-02-27T11:40:04.691Z,6.52
2023-02-27T11:42:35.539Z,6.70
2023-02-27T11:45:07.886Z,6.74
2023-02-27T11:47:38.392Z,6.71
2023-02-27T11:50:36.777Z,6.61
2023-02-27T11:53:21.786Z,6.48
2023-02-27T11:55:50.993Z,6.40
2023-02-27T11:58:22.926Z,6.41
2023-02-27T12:00:55.387Z,6.40
2023-02-27T12:03:31.705Z,6.42
2023-02-27T12:06:04.854Z,6.44
2023-02-27T12:08:42.223Z,6.49
2023-02-27T12:11:21.584Z,6.47
2023-02-27T12:13:54.733Z,6.49
2023-02-27T12:16:33.476Z,6.49
2023-02-27T12:19:08.517Z,6.31
2023-02-27T12:21:42.752Z,6.17
2023-02-27T12:24:17.845Z,6.24
2023-02-27T12:26:47.808Z,6.24
2023-02-27T12:29:23.987Z,6.18
2023-02-27T12:32:00.336Z,6.13
2023-02-27T12:34:30.039Z,6.14
2023-02-27T12:37:03.098Z,6.22
2023-02-27T12:39:32.479Z,6.25
2023-02-27T12:42:27.815Z,6.30
2023-02-27T12:45:11.198Z,6.34
2023-02-27T12:47:47.724Z,6.33
2023-02-27T12:50:18.121Z,6.30
2023-02-27T12:53:03.496Z,6.39
2023-02-27T12:55:34.253Z,6.55
2023-02-27T12:58:26.564Z,6.78
2023-02-27T13:01:00.827Z,6.96
2023-02-27T13:03:34.464Z,7.26
2023-02-27T13:06:08.245Z,7.51
2023-02-27T13:08:58.888Z,7.73
2023-02-27T13:11:38.313Z,7.83
2023-02-27T13:14:13.424Z,7.78
2023-02-27T13:16:45.108Z,7.68
2023-02-27T13:19:16.478Z,7.55
2023-02-27T13:21:50.556Z,7.45
2023-02-27T13:24:27.537Z,7.33
2023-02-27T13:26:59.085Z,7.23
2023-02-27T13:29:34.953Z,7.04
2023-02-27T13:32:14.468Z,6.90
2023-02-27T13:34:46.650Z,6.80
2023-02-27T13:37:14.458Z,6.73
2023-02-27T13:39:57.043Z,6.66
2023-02-27T13:42:58.368Z,6.68
2023-02-27T13:45:55.046Z,6.89
2023-02-27T13:48:49.312Z,7.13
2023-02-27T13:51:44.977Z,7.41
2023-02-27T13:54:26.423Z,7.61
2023-02-27T13:57:21.274Z,7.81
2023-02-27T14:00:08.595Z,7.87
2023-02-27T14:02:58.408Z,7.78
2023-02-27T14:05:32.241Z,7.58
2023-02-27T14:08:10.603Z,7.40
2023-02-27T14:10:41.444Z,7.31
2023-02-27T14:13:42.640Z,7.24
2023-02-27T14:16:12.401Z,7.20
2023-02-27T14:18:58.265Z,7.15
2023-02-27T14:21:55.824Z,7.12
2023-02-27T14:24:38.231Z,7.21
2023-02-27T14:27:15.495Z,7.25
2023-02-27T14:29:46.626Z,7.24
2023-02-27T14:32:20.859Z,7.23
2023-02-27T14:34:49.221Z,7.23
2023-02-27T14:37:21.687Z,7.19
2023-02-27T14:39:50.777Z,7.18
2023-02-27T14:42:36.444Z,7.15
2023-02-27T14:45:05.461Z,6.89
2023-02-27T14:47:37.167Z,6.85
2023-02-27T14:50:07.336Z,6.88
2023-02-27T14:52:44.378Z,6.92
2023-02-27T14:55:17.826Z,7.03
2023-02-27T14:57:57.890Z,7.17
2023-02-27T15:00:33.978Z,7.40
2023-02-27T15:03:19.406Z,7.64
2023-02-27T15:05:48.851Z,7.77
2023-02-27T15:08:20.630Z,7.88
2023-02-27T15:10:49.101Z,7.92
2023-02-27T15:13:25.469Z,8.03
2023-02-27T15:16:16.699Z,8.09
2023-02-27T15:18:48.550Z,7.99
2023-02-27T15:21:16.680Z,7.89
2023-02-27T15:23:44.936Z,7.81
2023-02-27T15:26:14.461Z,7.64
2023-02-27T15:28:42.399Z,7.46
2023-02-27T15:31:18.847Z,7.36
2023-02-27T15:33:49.392Z,7.34
2023-02-27T15:36:24.208Z,7.24
2023-02-27T15:39:06.858Z,7.10
2023-02-27T15:41:35.619Z,7.15
2023-02-27T15:44:04.389Z,7.19
2023-02-27T15:46:33.195Z,7.23
2023-02-27T15:49:02.830Z,7.24
2023-02-27T15:51:31.388Z,7.19
2023-02-27T15:54:01.461Z,7.16
2023-02-27T15:56:34.861Z,7.10
2023-02-27T15:59:04.952Z,7.04
2023-02-27T16:01:34.889Z,7.04
2023-02-27T16:04:07.336Z,7.06
2023-02-27T16:06:37.353Z,7.09
2023-02-27T16:09:07.568Z,7.11
2023-02-27T16:11:37.190Z,7.11
2023-02-27T16:14:05.995Z,7.08
2023-02-27T16:16:36.183Z,7.07
2023-02-27T16:19:26.277Z,7.01
2023-02-27T16:22:06.571Z,6.96
2023-02-27T16:24:34.795Z,6.88
2023-02-27T16:27:02.926Z,6.87
2023-02-27T16:29:35.610Z,6.83
2023-02-27T16:32:04.809Z,6.83
2023-02-27T16:34:45.265Z,6.80
2023-02-27T16:37:21.899Z,6.82
2023-02-27T16:39:51.777Z,6.87
2023-02-27T16:42:19.578Z,6.89
2023-02-27T16:44:47.484Z,6.89
2023-02-27T16:47:15.238Z,6.87
2023-02-27T16:49:45.648Z,6.81
2023-02-27T16:52:13.346Z,6.78
2023-02-27T16:54:41.135Z,6.76
2023-02-27T16:57:10.096Z,6.76
2023-02-27T16:59:40.498Z,6.81
2023-02-27T17:02:13.341Z,6.84
2023-02-27T17:04:44.026Z,6.92
2023-02-27T17:07:16.672Z,7.09
2023-02-27T17:09:44.836Z,7.25
2023-02-27T17:12:13.271Z,7.46
2023-02-27T17:14:41.149Z,7.67
2023-02-27T17:17:10.793Z,7.89
2023-02-27T17:19:39.072Z,8.05
2023-02-27T17:22:07.073Z,8.14
2023-02-27T17:24:36.158Z,8.12
2023-02-27T17:27:04.006Z,8.04
2023-02-27T17:29:31.832Z,7.92
2023-02-27T17:31:59.606Z,7.79
2023-02-27T17:34:27.405Z,7.69
2023-02-27T17:36:55.133Z,7.61
2023-02-27T17:39:22.891Z,7.52
2023-02-27T17:41:52.899Z,7.45
2023-02-27T17:44:20.760Z,7.38
2023-02-27T17:46:48.532Z,7.30
2023-02-27T17:49:17.115Z,7.25
2023-02-27T17:51:44.849Z,7.23
2023-02-27T17:54:12.615Z,7.18
2023-02-27T17:56:40.765Z,7.15
2023-02-27T17:59:10.899Z,7.11
2023-02-27T18:01:38.644Z,7.09
2023-02-27T18:04:07.985Z,7.12
2023-02-27T18:06:36.204Z,7.26
2023-02-27T18:09:04.042Z,7.42
2023-02-27T18:11:31.766Z,7.56
2023-02-27T18:14:00.457Z,7.62
2023-02-27T18:16:30.084Z,7.67
2023-02-27T18:18:58.014Z,7.76
2023-02-27T18:21:27.170Z,7.87
2023-02-27T18:23:56.218Z,7.90
2023-02-27T18:26:30.421Z,7.83
2023-02-27T18:29:00.302Z,7.71
2023-02-27T18:31:32.048Z,7.61
2023-02-27T18:33:59.903Z,7.56
2023-02-27T18:36:28.896Z,7.49
2023-02-27T18:38:56.876Z,7.42
2023-02-27T18:41:24.711Z,7.37
2023-02-27T18:43:52.637Z,7.31
2023-02-27T18:46:20.818Z,7.25
2023-02-27T18:48:50.066Z,7.20
2023-02-27T18:51:18.561Z,7.16
2023-02-27T18:53:48.822Z,7.15
2023-02-27T18:56:18.965Z,7.16
2023-02-27T18:58:46.921Z,7.17
2023-02-27T19:01:20.200Z,7.15
2023-02-27T19:03:50.045Z,7.21
2023-02-27T19:06:18.583Z,7.40
2023-02-27T19:08:46.723Z,7.55
2023-02-27T19:11:22.581Z,7.73
2023-02-27T19:13:50.340Z,7.91
2023-02-27T19:16:18.288Z,8.07
2023-02-27T19:18:46.119Z,8.23
2023-02-27T19:21:15.254Z,8.44
2023-02-27T19:23:43.321Z,8.57
2023-02-27T19:26:11.081Z,8.52
2023-02-27T19:28:38.842Z,8.42
2023-02-27T19:31:08.082Z,8.22
2023-02-27T19:33:35.904Z,8.02
2023-02-27T19:36:06.603Z,7.84
2023-02-27T19:38:36.157Z,7.72
2023-02-27T19:41:04.917Z,7.60
2023-02-27T19:43:32.685Z,7.49
2023-02-27T19:46:00.458Z,7.41
2023-02-27T19:48:28.196Z,7.33
2023-02-27T19:50:55.914Z,7.25
2023-02-27T19:53:23.640Z,7.18
2023-02-27T19:56:00.124Z,7.13
2023-02-27T19:58:28.742Z,7.10
2023-02-27T20:00:56.576Z,7.06
2023-02-27T20:03:24.497Z,7.04
2023-02-27T20:05:52.566Z,6.99
2023-02-27T20:08:20.259Z,6.93
2023-02-27T20:10:54.985Z,6.95
2023-02-27T20:13:24.376Z,6.93
2023-02-27T20:15:59.108Z,6.86
2023-02-27T20:18:29.751Z,6.89
2023-02-27T20:21:03.129Z,6.84
2023-02-27T20:23:31.824Z,6.83
2023-02-27T20:26:00.338Z,6.81
2023-02-27T20:28:29.471Z,6.80
2023-02-27T20:30:58.475Z,6.79
2023-02-27T20:33:26.171Z,6.80
2023-02-27T20:35:53.913Z,6.76
2023-02-27T20:38:22.744Z,6.75
2023-02-27T20:40:50.962Z,6.74
2023-02-27T20:43:18.720Z,6.73
2023-02-27T20:45:48.052Z,6.68
2023-02-27T20:48:15.841Z,6.68
2023-02-27T20:50:43.518Z,6.66
2023-02-27T20:53:11.313Z,6.67
2023-02-27T20:55:41.556Z,6.66
2023-02-27T20:58:09.300Z,6.65
2023-02-27T21:00:37.971Z,6.64
2023-02-27T21:03:07.195Z,6.62
2023-02-27T21:05:35.143Z,6.61
2023-02-27T21:08:02.903Z,6.60
2023-02-27T21:10:30.584Z,6.59
2023-02-27T21:12:58.319Z,6.58
2023-02-27T21:15:26.203Z,6.58
2023-02-27T21:17:53.928Z,6.53
2023-02-27T21:20:23.058Z,6.52
2023-02-27T21:22:50.761Z,6.50
2023-02-27T21:25:18.692Z,6.47
2023-02-27T21:27:46.407Z,6.45
2023-02-27T21:30:14.435Z,6.42
2023-02-27T21:32:42.327Z,6.41
2023-02-27T21:35:10.578Z,6.39
2023-02-27T21:37:46.687Z,6.37
2023-02-27T21:40:15.124Z,6.39
2023-02-27T21:42:43.824Z,6.30
2023-02-27T21:45:12.598Z,6.38
2023-02-27T21:47:40.323Z,6.36
2023-02-27T21:50:14.237Z,6.33
2023-02-27T21:52:44.897Z,6.31
2023-02-27T21:55:14.281Z,6.26
2023-02-27T21:57:42.067Z,6.28
2023-02-27T22:00:12.196Z,6.27
2023-02-27T22:02:40.636Z,6.26
2023-02-27T22:05:09.219Z,6.22
2023-02-27T22:07:37.581Z,6.24
2023-02-27T22:10:07.366Z,6.22
2023-02-27T22:12:35.113Z,6.22
2023-02-27T22:15:02.921Z,6.20
2023-02-27T22:17:30.919Z,6.19
2023-02-27T22:19:58.638Z,6.19
2023-02-27T22:22:26.408Z,6.19
2023-02-27T22:24:54.173Z,6.16
2023-02-27T22:27:23.232Z,6.13
2023-02-27T22:29:50.977Z,6.09
2023-02-27T22:32:18.792Z,6.07
2023-02-27T22:34:46.471Z,6.08
2023-02-27T22:37:16.098Z,6.08
2023-02-27T22:39:43.886Z,6.08
2023-02-27T22:42:11.631Z,6.07
2023-02-27T22:44:40.846Z,6.06
2023-02-27T22:47:09.368Z,6.07
2023-02-27T22:49:39.195Z,6.06
2023-02-27T22:52:06.901Z,6.07
2023-02-27T22:54:34.724Z,6.06
2023-02-27T22:57:02.422Z,6.02
2023-02-27T22:59:30.133Z,6.01
2023-02-27T23:01:59.225Z,6.01
2023-02-27T23:04:27.089Z,6.00
2023-02-27T23:06:56.618Z,6.01
2023-02-27T23:09:27.172Z,6.01
2023-02-27T23:11:55.260Z,5.99
2023-02-27T23:14:23.690Z,6.03
2023-02-27T23:16:51.441Z,6.01
2023-02-27T23:19:21.448Z,5.98
2023-02-27T23:21:49.391Z,5.96
2023-02-27T23:24:19.209Z,5.94
2023-02-27T23:26:49.200Z,5.95
2023-02-27T23:29:17.496Z,5.83
2023-02-27T23:31:45.602Z,5.85
2023-02-27T23:34:13.427Z,5.89
2023-02-27T23:36:42.497Z,5.91
2023-02-27T23:39:10.742Z,5.87
2023-02-27T23:41:38.494Z,5.84
2023-02-27T23:44:06.400Z,5.85
2023-02-27T23:46:34.120Z,5.85
2023-02-27T23:49:02.602Z,5.85
2023-02-27T23:51:31.195Z,5.85
2023-02-27T23:54:00.938Z,5.82
2023-02-27T23:56:30.616Z,5.82
2023-02-27T23:59:00.324Z,5.83
